createdAt,value
2022-08-31T00:00:37.611Z,7.50
2022-08-31T00:03:25.965Z,7.60
2022-08-31T00:06:01.896Z,7.50
2022-08-31T00:08:29.737Z,7.40
2022-08-31T00:10:57.597Z,7.40
2022-08-31T00:13:26.907Z,7.40
2022-08-31T00:15:56.285Z,7.50
2022-08-31T00:18:24.474Z,7.50
2022-08-31T00:20:51.900Z,7.40
2022-08-31T00:23:19.521Z,7.40
2022-08-31T00:25:48.322Z,7.30
2022-08-31T00:28:17.137Z,7.30
2022-08-31T00:30:44.705Z,7.30
2022-08-31T00:33:13.316Z,7.30
2022-08-31T00:35:42.170Z,7.30
2022-08-31T00:38:12.667Z,7.30
2022-08-31T00:40:44.706Z,7.30
2022-08-31T00:43:32.546Z,7.30
2022-08-31T00:46:00.075Z,7.30
2022-08-31T00:48:27.611Z,7.30
2022-08-31T00:50:56.139Z,7.30
2022-08-31T00:53:24.393Z,7.20
2022-08-31T00:55:51.821Z,7.10
2022-08-31T00:58:19.245Z,7.10
2022-08-31T01:00:47.701Z,7.10
2022-08-31T01:03:16.635Z,7.10
2022-08-31T01:05:44.263Z,7.10
2022-08-31T01:08:11.724Z,7.10
2022-08-31T01:10:43.759Z,7.10
2022-08-31T01:13:13.011Z,7.10
2022-08-31T01:15:50.395Z,7.10
2022-08-31T01:18:23.302Z,7.00
2022-08-31T01:21:14.707Z,7.00
2022-08-31T01:23:44.283Z,6.90
2022-08-31T01:26:22.400Z,6.90
2022-08-31T01:28:52.905Z,7.00
2022-08-31T01:31:26.833Z,7.10
2022-08-31T01:33:55.904Z,7.10
2022-08-31T01:36:26.559Z,7.00
2022-08-31T01:38:54.072Z,7.00
2022-08-31T01:41:22.101Z,7.00
2022-08-31T01:43:50.565Z,6.90
2022-08-31T01:46:18.147Z,6.80
2022-08-31T01:48:48.176Z,6.80
2022-08-31T01:51:17.561Z,6.80
2022-08-31T01:53:48.503Z,6.80
2022-08-31T01:56:25.199Z,6.80
2022-08-31T01:58:53.638Z,6.80
2022-08-31T02:01:37.599Z,6.90
2022-08-31T02:04:07.874Z,6.90
2022-08-31T02:06:36.361Z,6.80
2022-08-31T02:09:06.883Z,6.80
2022-08-31T02:11:34.461Z,6.80
2022-08-31T02:14:01.965Z,6.80
2022-08-31T02:16:30.023Z,6.80
2022-08-31T02:18:57.886Z,6.80
2022-08-31T02:21:25.981Z,6.80
2022-08-31T02:23:53.438Z,6.90
2022-08-31T02:26:21.537Z,6.80
2022-08-31T02:28:49.390Z,6.70
2022-08-31T02:31:17.616Z,6.70
2022-08-31T02:33:52.770Z,6.70
2022-08-31T02:36:22.633Z,6.80
2022-08-31T02:38:51.651Z,6.80
2022-08-31T02:41:20.478Z,6.90
2022-08-31T02:43:49.375Z,7.00
2022-08-31T02:46:17.757Z,6.80
2022-08-31T02:48:54.327Z,6.90
2022-08-31T02:51:22.103Z,7.00
2022-08-31T02:53:50.868Z,7.00
2022-08-31T02:56:18.411Z,6.90
2022-08-31T02:58:46.119Z,6.80
2022-08-31T03:01:13.573Z,6.70
2022-08-31T03:03:41.558Z,6.70
2022-08-31T03:06:14.443Z,6.70
2022-08-31T03:08:42.595Z,6.70
2022-08-31T03:11:10.788Z,6.80
2022-08-31T03:13:40.914Z,6.80
2022-08-31T03:16:09.684Z,6.80
2022-08-31T03:18:37.077Z,6.70
2022-08-31T03:21:04.531Z,6.70
2022-08-31T03:23:32.364Z,6.80
2022-08-31T03:26:00.465Z,6.80
2022-08-31T03:28:27.908Z,6.70
2022-08-31T03:31:15.920Z,6.70
2022-08-31T03:33:43.431Z,6.60
2022-08-31T03:36:11.046Z,6.70
2022-08-31T03:38:38.509Z,6.70
2022-08-31T03:41:06.549Z,6.60
2022-08-31T03:43:36.816Z,6.60
2022-08-31T03:46:06.151Z,6.60
2022-08-31T03:48:39.575Z,6.60
2022-08-31T03:51:08.052Z,6.50
2022-08-31T03:53:36.982Z,6.50
2022-08-31T03:56:08.809Z,6.40
2022-08-31T03:58:41.078Z,6.40
2022-08-31T04:01:11.565Z,6.40
2022-08-31T04:03:57.857Z,6.40
2022-08-31T04:06:44.743Z,6.40
2022-08-31T04:09:38.355Z,6.50
2022-08-31T04:12:44.255Z,6.50
2022-08-31T04:15:30.748Z,6.40
2022-08-31T04:18:17.491Z,6.40
2022-08-31T04:20:47.690Z,6.40
2022-08-31T04:23:15.716Z,6.50
2022-08-31T04:25:53.583Z,6.50
2022-08-31T04:28:23.025Z,6.50
2022-08-31T04:30:51.134Z,6.50
2022-08-31T04:33:19.226Z,6.50
2022-08-31T04:35:47.613Z,6.40
2022-08-31T04:38:16.042Z,6.40
2022-08-31T04:40:45.617Z,6.40
2022-08-31T04:43:13.265Z,6.40
2022-08-31T04:45:44.585Z,6.40
2022-08-31T04:48:13.984Z,6.40
2022-08-31T04:50:43.035Z,6.50
2022-08-31T04:53:11.524Z,6.60
2022-08-31T04:55:42.691Z,6.70
2022-08-31T04:58:13.586Z,6.60
2022-08-31T05:00:43.833Z,6.60
2022-08-31T05:03:31.251Z,6.60
2022-08-31T05:05:58.681Z,6.60
2022-08-31T05:08:28.878Z,6.70
2022-08-31T05:10:59.830Z,6.90
2022-08-31T05:13:27.660Z,7.00
2022-08-31T05:15:56.047Z,7.10
2022-08-31T05:18:26.273Z,7.20
2022-08-31T05:20:57.192Z,7.30
2022-08-31T05:23:24.617Z,7.30
2022-08-31T05:25:52.136Z,7.30
2022-08-31T05:28:23.401Z,7.30
2022-08-31T05:30:50.873Z,7.30
2022-08-31T05:33:30.825Z,7.40
2022-08-31T05:36:02.166Z,7.40
2022-08-31T05:38:29.904Z,7.50
2022-08-31T05:41:00.944Z,7.60
2022-08-31T05:43:28.927Z,7.70
2022-08-31T05:45:56.408Z,7.80
2022-08-31T05:48:30.205Z,7.90
2022-08-31T05:51:01.804Z,7.90
2022-08-31T05:53:29.957Z,8.10
2022-08-31T05:56:07.108Z,8.20
2022-08-31T05:58:34.641Z,8.30
2022-08-31T06:01:02.077Z,8.40
2022-08-31T06:03:56.872Z,8.40
2022-08-31T06:06:24.897Z,8.60
2022-08-31T06:08:53.425Z,8.70
2022-08-31T06:11:24.478Z,8.90
2022-08-31T06:13:56.036Z,9.10
2022-08-31T06:16:23.973Z,9.20
2022-08-31T06:18:55.602Z,9.30
2022-08-31T06:21:33.416Z,9.50
2022-08-31T06:24:03.197Z,9.70
2022-08-31T06:26:33.450Z,9.80
2022-08-31T06:29:03.059Z,10.00
2022-08-31T06:31:35.105Z,10.20
2022-08-31T06:34:29.158Z,10.50
2022-08-31T06:37:07.756Z,10.70
2022-08-31T06:40:07.874Z,10.90
2022-08-31T06:42:48.489Z,11.20
2022-08-31T06:45:31.261Z,11.50
2022-08-31T06:48:25.016Z,12.20
2022-08-31T06:50:57.390Z,13.30
2022-08-31T06:53:26.093Z,14.40
2022-08-31T06:56:20.662Z,15.70
2022-08-31T06:59:12.722Z,17.30
2022-08-31T07:01:59.912Z,18.70
2022-08-31T07:04:38.746Z,19.60
2022-08-31T07:07:08.862Z,20.20
2022-08-31T07:09:39.679Z,20.70
2022-08-31T07:12:08.128Z,21.20
2022-08-31T07:14:37.678Z,21.60
2022-08-31T07:17:07.699Z,22.10
2022-08-31T07:19:35.359Z,22.50
2022-08-31T07:22:07.586Z,22.80
2022-08-31T07:24:35.961Z,23.10
2022-08-31T07:27:10.132Z,23.50
2022-08-31T07:29:47.822Z,23.90
2022-08-31T07:32:17.440Z,24.20
2022-08-31T07:34:45.489Z,24.40
2022-08-31T07:37:40.322Z,24.90
2022-08-31T07:40:27.901Z,25.10
2022-08-31T07:42:55.803Z,25.60
2022-08-31T07:45:29.092Z,26.30
2022-08-31T07:48:00.425Z,26.80
2022-08-31T07:50:44.836Z,27.10
2022-08-31T07:53:22.446Z,27.00
2022-08-31T07:56:12.103Z,27.40
2022-08-31T07:58:43.171Z,27.80
2022-08-31T08:01:12.029Z,28.40
2022-08-31T08:03:43.970Z,28.80
2022-08-31T08:06:32.822Z,29.10
2022-08-31T08:09:27.035Z,29.50
2022-08-31T08:12:06.377Z,29.90
2022-08-31T08:15:01.264Z,30.30
2022-08-31T08:17:49.689Z,30.40
2022-08-31T08:20:34.534Z,30.60
2022-08-31T08:23:14.941Z,31.20
2022-08-31T08:26:09.616Z,31.70
2022-08-31T08:29:11.979Z,32.20
2022-08-31T08:31:44.183Z,32.60
2022-08-31T08:34:12.992Z,32.60
2022-08-31T08:36:40.850Z,33.30
2022-08-31T08:39:12.999Z,34.00
2022-08-31T08:41:45.930Z,34.30
2022-08-31T08:44:18.044Z,33.90
2022-08-31T08:47:15.078Z,33.40
2022-08-31T08:49:54.039Z,33.40
2022-08-31T08:52:42.622Z,33.70
2022-08-31T08:55:24.240Z,34.40
2022-08-31T08:57:56.041Z,34.30
2022-08-31T09:00:26.882Z,35.00
2022-08-31T09:03:27.168Z,35.00
2022-08-31T09:06:19.470Z,34.40
2022-08-31T09:09:20.366Z,35.20
2022-08-31T09:12:30.808Z,35.80
2022-08-31T09:15:21.886Z,36.50
2022-08-31T09:18:03.537Z,34.30
2022-08-31T09:20:33.699Z,35.40
2022-08-31T09:23:01.864Z,36.60
2022-08-31T09:25:37.966Z,37.50
2022-08-31T09:28:15.165Z,37.90
2022-08-31T09:30:45.686Z,38.60
2022-08-31T09:33:23.905Z,39.70
2022-08-31T09:35:56.782Z,40.70
2022-08-31T09:38:31.048Z,41.30
2022-08-31T09:40:59.437Z,41.40
2022-08-31T09:43:35.055Z,41.50
2022-08-31T09:46:08.903Z,40.50
2022-08-31T09:48:45.347Z,40.40
2022-08-31T09:51:26.354Z,40.80
2022-08-31T09:54:22.166Z,41.10
2022-08-31T09:56:55.479Z,41.20
2022-08-31T09:59:51.472Z,41.40
2022-08-31T10:02:26.205Z,42.10
2022-08-31T10:05:06.773Z,41.80
2022-08-31T10:07:38.847Z,42.10
2022-08-31T10:10:28.250Z,41.90
2022-08-31T10:13:18.437Z,42.90
2022-08-31T10:16:03.031Z,43.50
2022-08-31T10:18:39.686Z,44.00
2022-08-31T10:21:26.495Z,44.40
2022-08-31T10:24:28.639Z,45.00
2022-08-31T10:27:02.150Z,45.00
2022-08-31T10:29:57.340Z,44.60
2022-08-31T10:32:42.301Z,43.40
2022-08-31T10:35:25.269Z,43.50
2022-08-31T10:38:26.276Z,43.40
2022-08-31T10:41:32.885Z,43.30
2022-08-31T10:44:05.873Z,43.40
2022-08-31T10:46:35.657Z,43.90
2022-08-31T10:49:04.929Z,43.10
2022-08-31T10:51:38.212Z,43.50
2022-08-31T10:54:12.181Z,44.20
2022-08-31T10:56:46.867Z,45.00
2022-08-31T10:59:37.908Z,45.70
2022-08-31T11:02:27.139Z,45.60
2022-08-31T11:05:29.790Z,43.50
2022-08-31T11:08:13.279Z,43.60
2022-08-31T11:10:50.100Z,43.80
2022-08-31T11:13:39.942Z,44.60
2022-08-31T11:16:32.768Z,43.90
2022-08-31T11:19:09.298Z,44.50
2022-08-31T11:21:54.001Z,45.80
2022-08-31T11:25:20.405Z,46.30
2022-08-31T11:28:10.330Z,44.00
2022-08-31T11:30:47.295Z,44.70
2022-08-31T11:33:22.529Z,45.90
2022-08-31T11:35:49.866Z,46.90
2022-08-31T11:38:52.051Z,45.20
2022-08-31T11:41:31.498Z,45.60
2022-08-31T11:44:01.278Z,46.20
2022-08-31T11:46:28.774Z,46.70
2022-08-31T11:48:56.192Z,47.10
2022-08-31T11:51:44.932Z,46.90
2022-08-31T11:54:18.031Z,47.00
2022-08-31T11:56:47.694Z,47.60
2022-08-31T11:59:22.051Z,47.60
2022-08-31T12:01:49.923Z,47.10
2022-08-31T12:04:43.331Z,45.20
2022-08-31T12:07:19.770Z,45.40
2022-08-31T12:10:07.839Z,46.70
2022-08-31T12:13:09.368Z,47.20
2022-08-31T12:16:01.517Z,47.10
2022-08-31T12:18:50.258Z,47.00
2022-08-31T12:21:56.240Z,47.20
2022-08-31T12:24:50.865Z,47.20
2022-08-31T12:27:37.131Z,45.10
2022-08-31T12:30:22.458Z,45.00
2022-08-31T12:33:18.779Z,45.70
2022-08-31T12:35:49.591Z,46.20
2022-08-31T12:38:20.512Z,46.50
2022-08-31T12:40:54.699Z,46.00
2022-08-31T12:43:24.761Z,45.50
2022-08-31T12:46:21.323Z,45.80
2022-08-31T12:49:05.559Z,42.80
2022-08-31T12:51:47.988Z,41.80
2022-08-31T12:54:43.934Z,39.90
2022-08-31T12:57:20.140Z,37.50
2022-08-31T13:00:18.158Z,36.30
2022-08-31T13:02:49.929Z,38.20
2022-08-31T13:05:29.358Z,41.40
2022-08-31T13:07:58.161Z,43.30
2022-08-31T13:10:35.045Z,43.10
2022-08-31T13:13:10.597Z,39.90
2022-08-31T13:15:41.220Z,39.20
2022-08-31T13:18:16.358Z,37.20
2022-08-31T13:20:45.931Z,36.40
2022-08-31T13:23:22.117Z,38.30
2022-08-31T13:26:05.933Z,40.20
2022-08-31T13:28:34.999Z,37.50
2022-08-31T13:31:09.233Z,35.70
2022-08-31T13:33:40.169Z,36.90
2022-08-31T13:36:15.917Z,37.30
2022-08-31T13:38:49.568Z,34.80
2022-08-31T13:41:23.742Z,34.10
2022-08-31T13:43:58.754Z,34.80
2022-08-31T13:46:43.000Z,37.20
2022-08-31T13:49:35.486Z,38.00
2022-08-31T13:52:14.654Z,38.40
2022-08-31T13:54:42.540Z,40.00
2022-08-31T13:57:25.995Z,40.80
2022-08-31T13:59:53.718Z,41.40
2022-08-31T14:02:26.510Z,41.90
2022-08-31T14:05:00.958Z,41.70
2022-08-31T14:07:31.331Z,41.50
2022-08-31T14:10:18.060Z,40.40
2022-08-31T14:12:56.696Z,37.40
2022-08-31T14:15:35.150Z,36.60
2022-08-31T14:18:26.153Z,38.20
2022-08-31T14:21:24.166Z,37.30
2022-08-31T14:24:03.298Z,37.80
2022-08-31T14:26:34.229Z,37.30
2022-08-31T14:29:10.171Z,37.90
2022-08-31T14:31:52.166Z,38.30
2022-08-31T14:34:34.825Z,38.20
2022-08-31T14:37:20.204Z,37.70
2022-08-31T14:39:53.809Z,35.60
2022-08-31T14:42:30.366Z,33.80
2022-08-31T14:45:03.854Z,34.10
2022-08-31T14:47:36.167Z,35.00
2022-08-31T14:50:08.110Z,35.60
2022-08-31T14:52:38.394Z,35.10
2022-08-31T14:55:09.153Z,34.10
2022-08-31T14:57:40.261Z,33.90
2022-08-31T15:00:09.608Z,33.50
2022-08-31T15:02:38.281Z,33.30
2022-08-31T15:05:08.737Z,33.10
2022-08-31T15:07:39.194Z,32.80
2022-08-31T15:10:12.821Z,33.20
2022-08-31T15:12:40.450Z,32.90
2022-08-31T15:15:09.179Z,32.60
2022-08-31T15:17:39.574Z,33.10
2022-08-31T15:20:11.724Z,33.30
2022-08-31T15:22:40.947Z,33.30
2022-08-31T15:25:12.353Z,32.50
2022-08-31T15:27:44.013Z,32.30
2022-08-31T15:30:14.778Z,32.60
2022-08-31T15:32:45.309Z,32.70
2022-08-31T15:35:20.175Z,32.80
2022-08-31T15:37:52.080Z,32.40
2022-08-31T15:40:21.564Z,31.80
2022-08-31T15:42:50.878Z,30.90
2022-08-31T15:45:18.645Z,30.10
2022-08-31T15:48:05.749Z,29.50
2022-08-31T15:50:35.796Z,29.20
2022-08-31T15:53:09.556Z,28.80
2022-08-31T15:55:40.268Z,28.40
2022-08-31T15:58:09.429Z,28.00
2022-08-31T16:00:38.135Z,27.60
2022-08-31T16:03:06.047Z,27.30
2022-08-31T16:05:39.186Z,27.10
2022-08-31T16:08:10.635Z,26.90
2022-08-31T16:10:42.915Z,26.70
2022-08-31T16:13:10.776Z,26.50
2022-08-31T16:15:38.761Z,26.30
2022-08-31T16:18:07.438Z,26.00
2022-08-31T16:20:35.240Z,25.70
2022-08-31T16:23:03.038Z,25.50
2022-08-31T16:25:47.805Z,25.30
2022-08-31T16:28:19.897Z,25.10
2022-08-31T16:30:48.528Z,24.70
2022-08-31T16:33:18.623Z,24.50
2022-08-31T16:35:46.111Z,24.30
2022-08-31T16:38:14.338Z,24.10
2022-08-31T16:40:42.637Z,23.90
2022-08-31T16:43:10.598Z,23.80
2022-08-31T16:45:39.622Z,23.90
2022-08-31T16:48:27.134Z,24.10
2022-08-31T16:50:59.704Z,24.30
2022-08-31T16:53:28.665Z,24.40
2022-08-31T16:55:58.870Z,24.50
2022-08-31T16:58:50.069Z,24.80
2022-08-31T17:01:16.588Z,25.00
2022-08-31T17:03:47.801Z,25.20
2022-08-31T17:06:16.306Z,25.40
2022-08-31T17:08:45.398Z,25.50
2022-08-31T17:11:30.138Z,25.50
2022-08-31T17:14:00.166Z,25.60
2022-08-31T17:16:31.308Z,25.70
2022-08-31T17:18:59.615Z,25.50
2022-08-31T17:21:28.897Z,25.20
2022-08-31T17:23:59.412Z,24.80
2022-08-31T17:26:33.834Z,24.50
2022-08-31T17:29:05.621Z,24.50
2022-08-31T17:31:44.905Z,24.50
2022-08-31T17:34:17.084Z,24.30
2022-08-31T17:36:46.560Z,24.00
2022-08-31T17:39:15.574Z,23.60
2022-08-31T17:41:44.364Z,23.30
2022-08-31T17:44:17.399Z,23.00
2022-08-31T17:46:50.070Z,22.90
2022-08-31T17:49:20.673Z,22.80
2022-08-31T17:51:50.018Z,22.60
2022-08-31T17:54:32.718Z,22.40
2022-08-31T17:57:02.390Z,22.10
2022-08-31T17:59:41.055Z,21.90
2022-08-31T18:02:16.029Z,21.70
2022-08-31T18:04:44.005Z,21.40
2022-08-31T18:07:12.338Z,21.10
2022-08-31T18:09:42.690Z,20.80
2022-08-31T18:12:10.623Z,20.50
2022-08-31T18:14:39.797Z,20.20
2022-08-31T18:17:10.915Z,19.90
2022-08-31T18:19:39.342Z,19.70
2022-08-31T18:22:07.136Z,19.50
2022-08-31T18:24:36.927Z,19.40
2022-08-31T18:27:08.475Z,19.20
2022-08-31T18:29:38.247Z,19.10
2022-08-31T18:32:07.624Z,18.90
2022-08-31T18:34:39.666Z,18.70
2022-08-31T18:37:09.815Z,18.50
2022-08-31T18:39:59.613Z,18.30
2022-08-31T18:42:47.014Z,18.10
2022-08-31T18:45:19.190Z,17.90
2022-08-31T18:50:46.458Z,17.50
2022-08-31T18:53:27.426Z,17.40
2022-08-31T18:56:04.510Z,17.40
2022-08-31T18:58:32.330Z,17.30
2022-08-31T19:00:59.846Z,17.20
2022-08-31T19:03:27.944Z,17.10
2022-08-31T19:05:56.556Z,17.00
2022-08-31T19:08:25.367Z,16.90
2022-08-31T19:10:56.319Z,16.80
2022-08-31T19:13:31.438Z,16.70
2022-08-31T19:16:03.685Z,16.50
2022-08-31T19:18:33.400Z,16.50
2022-08-31T19:21:15.579Z,16.40
2022-08-31T19:23:43.584Z,16.30
2022-08-31T19:26:16.895Z,16.20
2022-08-31T19:28:48.715Z,16.00
2022-08-31T19:31:18.865Z,15.80
2022-08-31T19:33:46.878Z,15.70
2022-08-31T19:36:15.054Z,15.60
2022-08-31T19:38:43.159Z,15.50
2022-08-31T19:41:19.297Z,15.40
2022-08-31T19:43:53.721Z,15.30
2022-08-31T19:46:32.718Z,15.20
2022-08-31T19:49:00.568Z,15.10
2022-08-31T19:51:31.378Z,15.00
2022-08-31T19:54:03.441Z,15.00
2022-08-31T19:56:31.473Z,14.90
2022-08-31T19:59:00.079Z,14.70
2022-08-31T20:01:33.588Z,14.60
2022-08-31T20:04:08.085Z,14.40
2022-08-31T20:06:35.466Z,14.30
2022-08-31T20:09:05.562Z,14.20
2022-08-31T20:11:36.232Z,14.20
2022-08-31T20:14:05.132Z,14.20
2022-08-31T20:16:37.053Z,14.10
2022-08-31T20:19:05.820Z,14.00
2022-08-31T20:21:35.353Z,14.00
2022-08-31T20:24:07.574Z,13.80
2022-08-31T20:26:47.104Z,13.70
2022-08-31T20:29:18.066Z,13.60
2022-08-31T20:31:48.843Z,13.50
2022-08-31T20:34:19.019Z,13.40
2022-08-31T20:36:49.185Z,13.30
2022-08-31T20:39:17.990Z,13.20
2022-08-31T20:41:47.627Z,13.00
2022-08-31T20:44:18.694Z,12.90
2022-08-31T20:47:17.364Z,12.90
2022-08-31T20:49:50.663Z,12.80
2022-08-31T20:52:18.609Z,12.70
2022-08-31T20:54:50.123Z,12.60
2022-08-31T20:57:18.446Z,12.50
2022-08-31T20:59:46.079Z,12.40
2022-08-31T21:02:13.756Z,12.30
2022-08-31T21:04:45.246Z,12.20
2022-08-31T21:07:14.918Z,12.10
2022-08-31T21:09:44.007Z,12.00
2022-08-31T21:12:17.814Z,12.00
2022-08-31T21:14:46.343Z,12.00
2022-08-31T21:17:15.809Z,11.90
2022-08-31T21:19:44.362Z,11.80
2022-08-31T21:22:17.097Z,11.80
2022-08-31T21:24:45.105Z,11.60
2022-08-31T21:27:16.891Z,11.50
2022-08-31T21:29:46.907Z,11.40
2022-08-31T21:32:15.520Z,11.40
2022-08-31T21:34:42.909Z,11.20
2022-08-31T21:37:11.683Z,11.20
2022-08-31T21:39:39.957Z,11.10
2022-08-31T21:42:07.489Z,11.00
2022-08-31T21:44:35.895Z,11.00
2022-08-31T21:47:04.512Z,10.90
2022-08-31T21:49:34.332Z,10.80
2022-08-31T21:52:01.965Z,10.80
2022-08-31T21:54:29.933Z,10.70
2022-08-31T21:57:00.593Z,10.70
2022-08-31T21:59:36.873Z,10.60
2022-08-31T22:02:09.169Z,10.60
2022-08-31T22:04:41.049Z,10.60
2022-08-31T22:07:09.479Z,10.50
2022-08-31T22:09:37.428Z,10.40
2022-08-31T22:12:07.489Z,10.40
2022-08-31T22:14:38.008Z,10.30
2022-08-31T22:17:07.708Z,10.30
2022-08-31T22:19:39.177Z,10.30
2022-08-31T22:22:12.038Z,10.30
2022-08-31T22:24:40.817Z,10.20
2022-08-31T22:27:10.259Z,10.10
2022-08-31T22:29:40.336Z,10.10
2022-08-31T22:32:12.555Z,10.00
2022-08-31T22:34:41.581Z,10.00
2022-08-31T22:37:09.599Z,9.90
2022-08-31T22:39:37.120Z,9.90
2022-08-31T22:42:04.969Z,9.80
2022-08-31T22:44:35.211Z,9.70
2022-08-31T22:47:03.446Z,9.70
2022-08-31T22:49:31.677Z,9.70
2022-08-31T22:51:59.029Z,9.70
2022-08-31T22:54:27.073Z,9.70
2022-08-31T22:56:54.674Z,9.70
2022-08-31T22:59:27.763Z,9.60
2022-08-31T23:02:03.247Z,9.60
2022-08-31T23:04:34.090Z,9.60
2022-08-31T23:07:04.206Z,9.50
2022-08-31T23:09:33.677Z,9.50
2022-08-31T23:12:03.576Z,9.50
2022-08-31T23:14:32.618Z,9.60
2022-08-31T23:17:03.973Z,9.50
2022-08-31T23:19:36.698Z,9.50
2022-08-31T23:22:15.334Z,9.40
2022-08-31T23:24:48.639Z,9.30
2022-08-31T23:27:19.704Z,9.30
2022-08-31T23:29:51.285Z,9.30
2022-08-31T23:32:21.924Z,9.30
2022-08-31T23:34:50.833Z,9.30
2022-08-31T23:37:19.731Z,9.20
2022-08-31T23:39:47.088Z,9.10
2022-08-31T23:42:16.470Z,9.10
2022-08-31T23:44:46.403Z,9.00
2022-08-31T23:47:20.396Z,9.00
2022-08-31T23:49:51.274Z,8.90
2022-08-31T23:52:21.654Z,8.90
2022-08-31T23:54:52.592Z,9.00
2022-08-31T23:57:31.388Z,9.00
